Latest Coastal Weather Observations for Port Kembla Harbour

IDN60701

Issued at 10:21 am EDT Wednesday 19 December 2018 (issued every 10 minutes, with the page automatically refreshed every 10 minutes)

About coastal observations | Map of coastal stations | Coastal observations for NSW | Marine services | Other Formats
Station Details ID: 068253 Name: PORT KEMBLA NTC AWS Lat: -34.47 Lon: 150.91 Height: 0.0 m
Data from the previous 72 hours. | See also: Recent months for locations in New South Wales
Date/Time
EDT
Wind Sea
Height
m
Swell Vis
km
Cloud Weather Temp
°C
Press
hPa
Rain since
9am
mm
Dir  Spd
kts
Gust
kts
Height
m
Period
s
Dir
19/10:00am SE 4 5 - - - - - - - 21.3 1014.7 -
19/09:30am S 3 5 - - - - - - - 21.6 1014.9 -
19/09:00am S 2 5 - - - - - - - 21.4 1014.8 -
19/08:30am S 3 6 - - - - - - - 21.1 1014.8 -
19/08:00am S 3 6 - - - - - - - 21.1 1014.8 -
19/07:30am S 1 3 - - - - - - - 20.9 1014.4 -
19/07:00am SSW 3 5 - - - - - - - 20.8 1014.3 -
19/06:30am S 3 6 - - - - - - - 20.9 1013.9 -
19/06:00am SW 4 6 - - - - - - - 20.8 1013.9 -
19/05:30am SSW 2 3 - - - - - - - 20.8 1013.6 -
19/05:00am SW 3 5 - - - - - - - 20.8 1013.5 -
19/04:30am SSW 2 4 - - - - - - - 20.9 1013.3 -
19/04:00am SW 3 6 - - - - - - - 20.9 1013.4 -
19/03:30am SSW 3 5 - - - - - - - 20.9 1013.5 -
19/03:00am SW 4 6 - - - - - - - 21.0 1013.7 -
19/02:30am SSW 4 7 - - - - - - - 21.1 1014.0 -
19/02:00am SSW 3 7 - - - - - - - 21.2 1014.4 -
19/01:30am SSW 4 8 - - - - - - - 21.2 1014.8 -
19/01:00am SSW 4 7 - - - - - - - 21.2 1015.2 -
19/12:30am SSW 4 8 - - - - - - - 21.3 1015.5 -
19/12:00am SW 5 8 - - - - - - - 21.3 1015.8 -
 
Date/Time
EDT
Wind Sea
Height
m
Swell Vis
km
Cloud Weather Temp
°C
Press
hPa
Rain since
9am
mm
Dir  Spd
kts
Gust
kts
Height
m
Period
s
Dir
18/11:30pm SW 5 7 - - - - - - - 21.2 1015.8 -
18/11:00pm SW 4 7 - - - - - - - 21.2 1015.9 -
18/10:30pm SSE 3 7 - - - - - - - 21.6 1015.9 -
18/10:00pm SSE 5 9 - - - - - - - 21.5 1015.8 -
18/09:30pm SSE 5 10 - - - - - - - 21.5 1015.7 -
18/09:00pm SSE 5 10 - - - - - - - 21.5 1015.4 -
18/08:30pm SSE 5 9 - - - - - - - 21.6 1015.2 -
18/08:00pm SSE 5 10 - - - - - - - 21.6 1014.8 -
18/07:30pm SSE 4 8 - - - - - - - 21.6 1014.3 -
18/07:00pm SSE 5 8 - - - - - - - 21.8 1014.0 -
18/06:30pm SSE 6 9 - - - - - - - 21.9 1013.8 -
18/06:00pm SSE 6 11 - - - - - - - 21.9 1013.7 -
18/05:30pm SSE 6 10 - - - - - - - 22.1 1013.3 -
18/05:00pm SE 7 11 - - - - - - - 21.9 1013.2 -
18/04:30pm SE 8 12 - - - - - - - 22.1 1013.2 -
18/04:00pm SE 6 11 - - - - - - - 22.7 1013.2 -
18/03:30pm SE 6 10 - - - - - - - 22.5 1013.3 -
18/03:00pm SE 8 11 - - - - - - - 22.6 1013.4 -
18/02:30pm SE 8 12 - - - - - - - 22.6 1013.5 -
18/02:00pm SE 8 12 - - - - - - - 22.3 1013.5 -
18/01:30pm SSE 6 10 - - - - - - - 23.2 1013.7 -
18/01:00pm SSE 6 11 - - - - - - - 22.9 1013.6 -
18/12:30pm SSE 6 11 - - - - - - - 23.1 1014.2 -
18/12:00pm SSE 7 13 - - - - - - - 23.5 1014.2 -
18/11:30am S 6 14 - - - - - - - 23.0 1014.4 -
18/11:00am S 9 13 - - - - - - - 22.9 1014.4 -
18/10:30am S 6 13 - - - - - - - 22.8 1014.5 -
18/10:00am S 6 11 - - - - - - - 22.4 1014.6 -
18/09:30am SSW 7 13 - - - - - - - 22.4 1014.6 -
18/09:00am SSW 7 15 - - - - - - - 22.6 1014.3 -
18/08:30am SSW 7 12 - - - - - - - 22.1 1014.2 -
18/08:00am SSW 6 11 - - - - - - - 22.3 1013.8 -
18/07:30am SW 7 12 - - - - - - - 22.2 1013.4 -
18/07:00am SW 6 10 - - - - - - - 21.9 1013.1 -
18/06:30am SW 6 8 - - - - - - - 21.3 1012.6 -
18/06:00am SW 6 10 - - - - - - - 21.1 1012.3 -
18/05:30am SW 6 9 - - - - - - - 21.0 1012.0 -
18/05:00am SW 6 9 - - - - - - - 21.1 1011.6 -
18/04:30am SW 4 7 - - - - - - - 21.2 1011.4 -
18/04:00am SSW 3 6 - - - - - - - 21.1 1011.2 -
18/03:30am S 2 6 - - - - - - - 21.4 1011.1 -
18/03:00am S 4 8 - - - - - - - 21.7 1011.1 -
18/02:30am SSW 3 7 - - - - - - - 21.5 1011.1 -
18/02:00am SSW 3 7 - - - - - - - 21.6 1011.4 -
18/01:30am SW 5 9 - - - - - - - 21.9 1011.6 -
18/01:00am SW 7 9 - - - - - - - 21.8 1011.7 -
18/12:30am SW 7 10 - - - - - - - 21.7 1012.0 -
18/12:00am SSW 6 11 - - - - - - - 21.9 1012.1 -
 
Date/Time
EDT
Wind Sea
Height
m
Swell Vis
km
Cloud Weather Temp
°C
Press
hPa
Rain since
9am
mm
Dir  Spd
kts
Gust
kts
Height
m
Period
s
Dir
17/11:30pm SSW 4 6 - - - - - - - 21.6 1012.5 -
17/11:00pm SSW 4 9 - - - - - - - 21.6 1012.3 -
17/10:30pm S 6 12 - - - - - - - 21.6 1012.3 -
17/10:00pm S 6 11 - - - - - - - 21.8 1012.1 -
17/09:30pm S 5 9 - - - - - - - 22.0 1011.8 -
17/09:00pm S 4 10 - - - - - - - 22.2 1011.3 -
17/08:30pm SSE 3 5 - - - - - - - 22.3 1010.9 -
17/08:00pm SSE 4 7 - - - - - - - 22.4 1010.4 -
17/07:30pm SE 4 7 - - - - - - - 22.1 1010.1 -
17/07:00pm ESE 3 5 - - - - - - - 22.4 1009.6 -
17/06:30pm SE 4 6 - - - - - - - 22.5 1009.2 -
17/06:00pm ESE 3 5 - - - - - - - 22.6 1008.8 -
17/05:30pm ESE 5 6 - - - - - - - 22.8 1008.5 -
17/05:00pm E 2 4 - - - - - - - 23.3 1008.2 -
17/04:30pm ENE 2 4 - - - - - - - 23.5 1008.1 -
17/04:00pm NNE 2 3 - - - - - - - 23.8 1008.2 -
17/03:30pm NNE 4 6 - - - - - - - 23.3 1008.2 -
17/03:00pm NNE 4 6 - - - - - - - 23.0 1008.2 -
17/02:30pm NNE 5 6 - - - - - - - 22.8 1008.2 -
17/02:00pm ENE 3 4 - - - - - - - 22.6 1008.2 -
17/01:30pm NE 3 5 - - - - - - - 22.4 1008.3 -
17/01:00pm NE 3 5 - - - - - - - 21.9 1008.4 -
17/12:30pm NNE 4 5 - - - - - - - 21.6 1008.7 -
17/12:00pm NE 4 6 - - - - - - - 21.4 1008.7 -
17/11:30am NE 5 7 - - - - - - - 21.2 1009.0 -
17/11:00am ENE 5 6 - - - - - - - 21.0 1009.2 -
17/10:30am ESE 4 5 - - - - - - - 20.9 1009.3 -
17/10:00am E 3 5 - - - - - - - 21.0 1009.3 -
17/09:30am ENE 3 4 - - - - - - - 21.0 1009.5 -
17/09:00am ENE 2 3 - - - - - - - 20.9 1009.5 -
17/08:30am NE 2 3 - - - - - - - 20.9 1009.5 -
17/08:00am ESE 2 3 - - - - - - - 20.7 1009.1 -
17/07:30am SSW 2 4 - - - - - - - 20.8 1008.8 -
17/07:00am SW 3 5 - - - - - - - 20.1 1008.3 -
17/06:30am WSW 4 6 - - - - - - - 19.5 1008.0 -
17/06:00am S 3 5 - - - - - - - 19.8 1007.6 -
17/05:30am S 3 5 - - - - - - - 19.9 1007.4 -
17/05:00am ENE 2 3 - - - - - - - 19.4 1006.7 -
17/04:30am ENE 2 3 - - - - - - - 19.6 1006.5 -
17/04:00am ESE 1 2 - - - - - - - 20.1 1006.2 -
17/03:30am SSE 1 3 - - - - - - - 20.2 1006.0 -
17/03:00am CALM 0 1 - - - - - - - 20.3 1006.0 -
17/02:30am NE 1 2 - - - - - - - 20.4 1005.9 -
17/02:00am NNE 2 4 - - - - - - - 20.6 1006.2 -
17/01:30am W 3 4 - - - - - - - 21.2 1006.2 -
17/01:00am WSW 3 4 - - - - - - - 21.4 1006.4 -
17/12:30am WSW 6 7 - - - - - - - 21.3 1006.6 -
17/12:00am W 2 4 - - - - - - - 20.6 1006.7 -
 
Date/Time
EDT
Wind Sea
Height
m
Swell Vis
km
Cloud Weather Temp
°C
Press
hPa
Rain since
9am
mm
Dir  Spd
kts
Gust
kts
Height
m
Period
s
Dir
16/11:30pm NNE 3 5 - - - - - - - 20.6 1006.9 -
16/11:00pm CALM 0 2 - - - - - - - 20.8 1006.7 -
16/10:30pm NNE 3 5 - - - - - - - 20.9 1006.7 -
16/10:00pm NE 5 7 - - - - - - - 21.4 1006.7 -
16/09:30pm NNE 7 13 - - - - - - - 21.4 1006.8 -
16/09:00pm NE 16 22 - - - - - - - 21.6 1005.3 -
16/08:30pm NNE 17 26 - - - - - - - 21.9 1005.3 -
16/08:28pm NNE 18 28 - - - - - - - 22.0 1005.3 -
16/08:17pm N 14 27 - - - - - - - 22.9 1005.4 -
16/08:00pm N 13 21 - - - - - - - 22.5 1005.3 -
16/07:30pm NE 14 20 - - - - - - - 21.8 1005.0 -
16/07:00pm NNE 14 21 - - - - - - - 23.1 1004.5 -
16/06:30pm NE 14 21 - - - - - - - 22.1 1004.2 -
16/06:00pm NE 15 21 - - - - - - - 21.9 1003.7 -
16/05:30pm NE 18 23 - - - - - - - 22.0 1003.9 -
16/05:00pm NE 20 27 - - - - - - - 22.0 1004.3 -
16/04:30pm NE 18 24 - - - - - - - 22.0 1003.8 -
16/04:00pm NE 17 22 - - - - - - - 22.0 1004.1 -
16/03:30pm NE 17 23 - - - - - - - 22.0 1004.4 -
16/03:00pm NE 14 21 - - - - - - - 22.2 1004.5 -
16/02:30pm NE 15 21 - - - - - - - 22.4 1004.6 -
16/02:00pm NE 14 19 - - - - - - - 22.4 1004.9 -
16/01:30pm NE 14 20 - - - - - - - 22.3 1005.2 -
16/01:00pm NNE 8 12 - - - - - - - 22.4 1005.8 -
16/12:30pm NNE 9 12 - - - - - - - 22.1 1006.2 -
16/12:00pm NNE 8 11 - - - - - - - 22.0 1006.3 -
16/11:30am NE 9 13 - - - - - - - 21.8 1006.4 -
16/11:00am NE 7 10 - - - - - - - 21.5 1006.5 -
16/10:30am NE 6 9 - - - - - - - 21.6 1006.7 -

Other Formats:

Comma delimited format used in spreadsheet applications
http://www.bom.gov.au/fwo/IDN60701/IDN60701.95745.axf

JavaScript Object Notation format (JSON) in row-major order
http://www.bom.gov.au/fwo/IDN60701/IDN60701.95745.json